createdAt,value
2022-11-30T00:00:08.498Z,8.50
2022-11-30T00:02:15.714Z,8.50
2022-11-30T00:04:17.758Z,8.50
2022-11-30T00:06:23.882Z,8.40
2022-11-30T00:08:29.169Z,8.50
2022-11-30T00:10:30.925Z,8.40
2022-11-30T00:12:32.663Z,8.40
2022-11-30T00:14:34.362Z,8.40
2022-11-30T00:16:36.104Z,8.40
2022-11-30T00:18:38.260Z,8.40
2022-11-30T00:20:42.537Z,8.40
2022-11-30T00:22:46.664Z,8.40
2022-11-30T00:24:48.563Z,8.40
2022-11-30T00:26:50.524Z,8.30
2022-11-30T00:28:54.382Z,8.30
2022-11-30T00:31:00.361Z,8.30
2022-11-30T00:33:02.149Z,8.30
2022-11-30T00:35:05.151Z,8.30
2022-11-30T00:37:06.879Z,8.30
2022-11-30T00:39:09.365Z,8.30
2022-11-30T00:41:11.608Z,8.30
2022-11-30T00:43:13.338Z,8.30
2022-11-30T00:45:17.022Z,8.30
2022-11-30T00:47:19.502Z,8.30
2022-11-30T00:49:22.990Z,8.30
2022-11-30T00:51:26.901Z,8.30
2022-11-30T00:53:28.606Z,8.30
2022-11-30T00:55:31.805Z,8.30
2022-11-30T00:57:35.991Z,8.30
2022-11-30T00:59:40.032Z,8.30
2022-11-30T01:01:41.833Z,8.30
2022-11-30T01:03:44.843Z,8.30
2022-11-30T01:05:46.551Z,8.30
2022-11-30T01:07:48.342Z,8.30
2022-11-30T01:09:50.083Z,8.40
2022-11-30T01:11:51.767Z,8.30
2022-11-30T01:13:55.082Z,8.40
2022-11-30T01:15:59.392Z,8.40
2022-11-30T01:18:01.110Z,8.40
2022-11-30T01:20:04.986Z,8.40
2022-11-30T01:22:08.980Z,8.50
2022-11-30T01:24:10.779Z,8.50
2022-11-30T01:26:14.292Z,8.50
2022-11-30T01:28:15.939Z,8.50
2022-11-30T01:30:20.371Z,8.50
2022-11-30T01:32:22.168Z,8.50
2022-11-30T01:34:23.915Z,8.60
2022-11-30T01:36:27.731Z,8.60
2022-11-30T01:38:38.065Z,8.60
2022-11-30T01:40:48.959Z,8.60
2022-11-30T01:42:50.728Z,8.60
2022-11-30T01:44:54.355Z,8.60
2022-11-30T01:47:02.362Z,8.60
2022-11-30T01:49:09.909Z,8.70
2022-11-30T01:51:11.709Z,8.70
2022-11-30T01:53:14.067Z,8.70
2022-11-30T01:55:46.450Z,8.70
2022-11-30T01:57:52.215Z,8.70
2022-11-30T01:59:57.026Z,8.70
2022-11-30T02:02:02.735Z,8.70
2022-11-30T02:04:26.403Z,8.70
2022-11-30T02:06:29.899Z,8.80
2022-11-30T02:08:32.611Z,8.70
2022-11-30T02:10:38.037Z,8.70
2022-11-30T02:13:05.640Z,8.70
2022-11-30T02:15:19.371Z,8.80
2022-11-30T02:17:48.873Z,8.70
2022-11-30T02:20:14.220Z,8.70
2022-11-30T02:22:48.193Z,8.70
2022-11-30T02:25:24.672Z,8.70
2022-11-30T02:27:45.104Z,8.70
2022-11-30T02:30:12.858Z,8.70
2022-11-30T02:32:27.064Z,8.70
2022-11-30T02:34:31.404Z,8.60
2022-11-30T02:36:33.397Z,8.60
2022-11-30T02:38:35.127Z,8.60
2022-11-30T02:40:36.916Z,8.60
2022-11-30T02:42:41.353Z,8.60
2022-11-30T02:44:49.410Z,8.60
2022-11-30T02:47:10.729Z,8.60
2022-11-30T02:49:23.656Z,8.60
2022-11-30T02:51:28.277Z,8.60
2022-11-30T02:53:30.474Z,8.60
2022-11-30T02:55:32.159Z,8.60
2022-11-30T02:57:34.628Z,8.60
2022-11-30T02:59:36.357Z,8.60
2022-11-30T03:01:39.321Z,8.60
2022-11-30T03:03:41.044Z,8.60
2022-11-30T03:05:43.128Z,8.60
2022-11-30T03:07:49.797Z,8.60
2022-11-30T03:09:51.572Z,8.60
2022-11-30T03:11:53.221Z,8.70
2022-11-30T03:13:55.874Z,8.60
2022-11-30T03:16:04.986Z,8.70
2022-11-30T03:18:06.799Z,8.70
2022-11-30T03:20:11.654Z,8.60
2022-11-30T03:22:13.357Z,8.70
2022-11-30T03:24:15.049Z,8.70
2022-11-30T03:26:18.949Z,8.60
2022-11-30T03:28:20.644Z,8.70
2022-11-30T03:30:23.553Z,8.70
2022-11-30T03:32:25.298Z,8.70
2022-11-30T03:34:28.451Z,8.70
2022-11-30T03:36:32.639Z,8.70
2022-11-30T03:38:35.793Z,8.70
2022-11-30T03:40:37.840Z,8.70
2022-11-30T03:42:39.604Z,8.70
2022-11-30T03:44:41.467Z,8.70
2022-11-30T03:46:43.417Z,8.70
2022-11-30T03:48:46.211Z,8.70
2022-11-30T03:50:50.539Z,8.70
2022-11-30T03:52:52.189Z,8.70
2022-11-30T03:54:53.955Z,8.70
2022-11-30T03:56:55.707Z,8.60
2022-11-30T03:58:57.438Z,8.60
2022-11-30T04:01:08.521Z,8.60
2022-11-30T04:03:10.268Z,8.60
2022-11-30T04:05:12.019Z,8.60
2022-11-30T04:07:13.703Z,8.60
2022-11-30T04:09:15.352Z,8.60
2022-11-30T04:11:17.143Z,8.50
2022-11-30T04:13:19.912Z,8.60
2022-11-30T04:15:21.628Z,8.60
2022-11-30T04:17:23.269Z,8.60
2022-11-30T04:19:24.980Z,8.50
2022-11-30T04:21:29.259Z,8.50
2022-11-30T04:23:33.954Z,8.50
2022-11-30T04:25:42.653Z,8.50
2022-11-30T04:27:53.688Z,8.60
2022-11-30T04:29:55.346Z,8.60
2022-11-30T04:31:57.069Z,8.60
2022-11-30T04:33:59.321Z,8.60
2022-11-30T04:36:03.072Z,8.60
2022-11-30T04:38:04.740Z,8.60
2022-11-30T04:40:07.366Z,8.60
2022-11-30T04:42:09.194Z,8.60
2022-11-30T04:44:12.118Z,8.70
2022-11-30T04:46:14.845Z,8.60
2022-11-30T04:48:18.403Z,8.70
2022-11-30T04:50:20.075Z,8.70
2022-11-30T04:52:21.765Z,8.70
2022-11-30T04:54:23.530Z,8.70
2022-11-30T04:56:25.267Z,8.70
2022-11-30T04:58:32.642Z,8.70
2022-11-30T05:00:35.190Z,8.80
2022-11-30T05:02:36.883Z,8.80
2022-11-30T05:04:38.683Z,8.80
2022-11-30T05:06:42.793Z,8.80
2022-11-30T05:08:44.520Z,8.80
2022-11-30T05:10:53.420Z,8.80
2022-11-30T05:12:55.484Z,8.80
2022-11-30T05:14:57.328Z,8.80
2022-11-30T05:16:59.048Z,8.80
2022-11-30T05:19:00.824Z,8.80
2022-11-30T05:21:02.954Z,8.80
2022-11-30T05:23:04.687Z,8.80
2022-11-30T05:25:07.010Z,8.80
2022-11-30T05:27:14.280Z,8.80
2022-11-30T05:29:18.433Z,8.80
2022-11-30T05:31:22.632Z,8.80
2022-11-30T05:33:24.366Z,8.80
2022-11-30T05:35:26.188Z,8.70
2022-11-30T05:37:28.135Z,8.70
2022-11-30T05:39:32.164Z,8.70
2022-11-30T05:41:33.883Z,8.70
2022-11-30T05:43:35.613Z,8.70
2022-11-30T05:45:41.349Z,8.70
2022-11-30T05:47:50.155Z,8.70
2022-11-30T05:49:51.845Z,8.70
2022-11-30T05:51:53.524Z,8.70
2022-11-30T05:53:55.290Z,8.70
2022-11-30T05:55:57.345Z,8.70
2022-11-30T05:57:59.037Z,8.70
2022-11-30T06:00:00.718Z,8.70
2022-11-30T06:02:06.134Z,8.70
2022-11-30T06:04:10.043Z,8.80
2022-11-30T06:06:11.738Z,8.80
2022-11-30T06:08:13.688Z,8.80
2022-11-30T06:10:16.269Z,8.80
2022-11-30T06:12:20.337Z,8.80
2022-11-30T06:14:22.016Z,8.80
2022-11-30T06:16:23.751Z,8.80
2022-11-30T06:18:25.540Z,8.90
2022-11-30T06:20:27.313Z,8.90
2022-11-30T06:22:29.003Z,8.90
2022-11-30T06:24:30.659Z,8.90
2022-11-30T06:26:32.300Z,8.90
2022-11-30T06:28:34.963Z,8.90
2022-11-30T06:30:38.837Z,8.90
2022-11-30T06:32:50.356Z,8.90
2022-11-30T06:34:52.169Z,8.90
2022-11-30T06:36:53.866Z,8.90
2022-11-30T06:38:55.854Z,8.90
2022-11-30T06:41:06.085Z,8.90
2022-11-30T06:43:07.736Z,8.90
2022-11-30T06:45:09.812Z,8.90
2022-11-30T06:47:11.931Z,8.90
2022-11-30T06:49:15.830Z,8.90
2022-11-30T06:51:18.378Z,9.00
2022-11-30T06:53:20.019Z,9.00
2022-11-30T06:55:21.932Z,9.00
2022-11-30T06:57:30.693Z,9.00
2022-11-30T06:59:32.839Z,9.00
2022-11-30T07:01:34.508Z,9.00
2022-11-30T07:03:36.454Z,9.00
2022-11-30T07:05:45.875Z,9.00
2022-11-30T07:07:50.784Z,9.00
2022-11-30T07:09:52.499Z,9.00
2022-11-30T07:11:54.152Z,9.00
2022-11-30T07:13:55.869Z,9.00
2022-11-30T07:15:59.834Z,9.00
2022-11-30T07:18:01.794Z,9.00
2022-11-30T07:20:04.020Z,9.00
2022-11-30T07:22:05.785Z,9.00
2022-11-30T07:24:26.798Z,9.10
2022-11-30T07:26:28.605Z,9.10
2022-11-30T07:28:30.246Z,9.10
2022-11-30T07:30:34.788Z,9.00
2022-11-30T07:32:36.536Z,9.10
2022-11-30T07:34:38.376Z,9.10
2022-11-30T07:36:40.119Z,9.10
2022-11-30T07:38:41.920Z,9.10
2022-11-30T07:40:43.994Z,9.10
2022-11-30T07:42:45.700Z,9.10
2022-11-30T07:44:52.597Z,9.20
2022-11-30T07:47:01.089Z,9.10
2022-11-30T07:49:04.596Z,9.20
2022-11-30T07:51:10.011Z,9.20
2022-11-30T07:53:11.683Z,9.20
2022-11-30T07:55:13.411Z,9.20
2022-11-30T07:57:17.573Z,9.20
2022-11-30T07:59:19.233Z,9.20
2022-11-30T08:01:22.919Z,9.30
2022-11-30T08:03:31.142Z,9.30
2022-11-30T08:05:35.424Z,9.30
2022-11-30T08:07:37.138Z,9.30
2022-11-30T08:09:38.877Z,9.30
2022-11-30T08:11:40.591Z,9.30
2022-11-30T08:13:42.563Z,9.30
2022-11-30T08:15:45.817Z,9.40
2022-11-30T08:17:50.452Z,9.40
2022-11-30T08:19:52.320Z,9.40
2022-11-30T08:21:53.984Z,9.40
2022-11-30T08:23:58.945Z,9.40
2022-11-30T08:26:11.915Z,9.50
2022-11-30T08:28:14.780Z,9.50
2022-11-30T08:30:17.012Z,9.50
2022-11-30T08:32:18.809Z,9.50
2022-11-30T08:34:20.872Z,9.50
2022-11-30T08:36:23.659Z,9.60
2022-11-30T08:38:25.299Z,9.60
2022-11-30T08:40:27.468Z,9.60
2022-11-30T08:42:29.176Z,9.60
2022-11-30T08:44:30.848Z,9.60
2022-11-30T08:49:12.485Z,9.70
2022-11-30T08:51:17.446Z,9.70
2022-11-30T08:53:20.360Z,9.70
2022-11-30T08:55:22.092Z,9.70
2022-11-30T08:57:23.794Z,9.70
2022-11-30T08:59:25.681Z,9.80
2022-11-30T09:01:29.903Z,9.80
2022-11-30T09:03:33.325Z,9.80
2022-11-30T09:05:35.026Z,9.80
2022-11-30T09:07:38.878Z,9.80
2022-11-30T09:09:42.702Z,9.90
2022-11-30T09:11:44.430Z,9.90
2022-11-30T09:13:49.835Z,9.90
2022-11-30T09:15:56.977Z,9.90
2022-11-30T09:18:00.815Z,9.90
2022-11-30T09:20:02.669Z,10.00
2022-11-30T09:22:04.371Z,10.00
2022-11-30T09:24:06.292Z,10.00
2022-11-30T09:26:10.167Z,10.00
2022-11-30T09:28:14.155Z,10.00
2022-11-30T09:30:18.249Z,10.00
2022-11-30T09:32:19.940Z,10.00
2022-11-30T09:34:21.754Z,10.00
2022-11-30T09:36:27.021Z,10.10
2022-11-30T09:38:29.576Z,10.10
2022-11-30T09:40:35.583Z,10.10
2022-11-30T09:42:46.872Z,10.10
2022-11-30T09:45:13.742Z,10.20
2022-11-30T09:47:27.771Z,10.20
2022-11-30T09:49:43.143Z,10.20
2022-11-30T09:51:47.739Z,10.30
2022-11-30T09:53:55.761Z,10.30
2022-11-30T09:56:00.225Z,10.30
2022-11-30T09:58:04.265Z,10.30
2022-11-30T10:00:14.977Z,10.30
2022-11-30T10:02:18.261Z,10.30
2022-11-30T10:04:22.847Z,10.30
2022-11-30T10:06:45.779Z,10.40
2022-11-30T10:09:21.035Z,10.40
2022-11-30T10:11:57.785Z,10.40
2022-11-30T10:14:02.779Z,10.40
2022-11-30T10:16:24.205Z,10.40
2022-11-30T10:18:52.314Z,10.40
2022-11-30T10:21:28.814Z,10.40
2022-11-30T10:24:15.055Z,10.50
2022-11-30T10:26:20.151Z,10.50
2022-11-30T10:28:48.259Z,10.50
2022-11-30T10:30:50.305Z,10.50
2022-11-30T10:32:58.743Z,10.60
2022-11-30T10:35:15.319Z,10.60
2022-11-30T10:37:20.308Z,10.70
2022-11-30T10:39:31.261Z,10.70
2022-11-30T10:41:43.652Z,10.70
2022-11-30T10:43:53.994Z,10.70
2022-11-30T10:45:56.361Z,10.80
2022-11-30T10:48:09.637Z,10.80
2022-11-30T10:50:16.082Z,10.90
2022-11-30T10:52:27.326Z,10.90
2022-11-30T10:54:32.105Z,10.90
2022-11-30T10:56:36.152Z,10.90
2022-11-30T10:58:48.142Z,10.90
2022-11-30T11:01:11.156Z,10.90
2022-11-30T11:03:26.675Z,10.90
2022-11-30T11:05:30.027Z,10.90
2022-11-30T11:07:31.966Z,10.90
2022-11-30T11:09:39.925Z,10.90
2022-11-30T11:11:42.172Z,10.90
2022-11-30T11:13:44.117Z,10.90
2022-11-30T11:16:00.596Z,10.90
2022-11-30T11:18:21.676Z,11.00
2022-11-30T11:20:38.948Z,11.00
2022-11-30T11:22:44.070Z,11.00
2022-11-30T11:24:46.453Z,11.10
2022-11-30T11:26:55.628Z,11.00
2022-11-30T11:29:03.470Z,11.00
2022-11-30T11:31:18.548Z,11.10
2022-11-30T11:33:26.627Z,11.10
2022-11-30T11:35:36.386Z,11.10
2022-11-30T11:37:41.489Z,11.10
2022-11-30T11:40:15.249Z,11.10
2022-11-30T11:42:22.491Z,11.10
2022-11-30T11:44:30.141Z,11.10
2022-11-30T11:46:37.835Z,11.10
2022-11-30T11:48:45.886Z,11.10
2022-11-30T11:51:06.656Z,11.10
2022-11-30T11:53:26.568Z,11.10
2022-11-30T11:55:30.550Z,11.10
2022-11-30T11:57:46.794Z,11.10
2022-11-30T11:59:56.828Z,11.10
2022-11-30T12:02:01.527Z,11.10
2022-11-30T12:04:22.169Z,11.10
2022-11-30T12:06:24.646Z,11.10
2022-11-30T12:08:38.714Z,11.20
2022-11-30T12:11:01.747Z,11.20
2022-11-30T12:13:13.254Z,11.20
2022-11-30T12:15:15.194Z,11.20
2022-11-30T12:17:42.533Z,11.20
2022-11-30T12:20:01.836Z,11.20
2022-11-30T12:22:22.174Z,11.20
2022-11-30T12:24:46.798Z,11.20
2022-11-30T12:26:58.344Z,11.20
2022-11-30T12:29:23.088Z,11.20
2022-11-30T12:31:50.730Z,11.20
2022-11-30T12:34:13.131Z,11.20
2022-11-30T12:36:28.677Z,11.30
2022-11-30T12:38:57.168Z,11.30
2022-11-30T12:41:02.618Z,11.30
2022-11-30T12:43:21.344Z,11.30
2022-11-30T12:45:44.310Z,11.20
2022-11-30T12:48:18.252Z,11.20
2022-11-30T12:50:47.909Z,11.20
2022-11-30T12:53:25.072Z,11.20
2022-11-30T12:55:36.415Z,11.20
2022-11-30T12:58:06.139Z,11.10
2022-11-30T13:00:18.724Z,11.20
2022-11-30T13:02:32.657Z,11.10
2022-11-30T13:04:58.407Z,11.20
2022-11-30T13:07:08.786Z,11.10
2022-11-30T13:09:33.690Z,11.10
2022-11-30T13:11:40.641Z,11.20
2022-11-30T13:13:52.182Z,11.20
2022-11-30T13:15:55.097Z,11.10
2022-11-30T13:17:57.632Z,11.10
2022-11-30T13:20:23.537Z,11.10
2022-11-30T13:22:33.912Z,11.10
2022-11-30T13:24:41.691Z,11.10
2022-11-30T13:26:55.784Z,11.10
2022-11-30T13:29:07.482Z,11.10
2022-11-30T13:31:20.621Z,11.10
2022-11-30T13:33:35.159Z,11.10
2022-11-30T13:35:36.814Z,11.10
2022-11-30T13:37:38.896Z,11.10
2022-11-30T13:39:53.503Z,11.00
2022-11-30T13:42:01.121Z,11.00
2022-11-30T13:44:06.295Z,11.00
2022-11-30T13:46:15.459Z,11.00
2022-11-30T13:48:38.190Z,11.00
2022-11-30T13:50:42.580Z,11.00
2022-11-30T13:53:03.173Z,11.00
2022-11-30T13:55:33.916Z,11.00
2022-11-30T13:57:35.591Z,11.00
2022-11-30T13:59:47.291Z,10.90
2022-11-30T14:01:50.188Z,10.90
2022-11-30T14:04:30.279Z,10.90
2022-11-30T14:06:51.882Z,10.90
2022-11-30T14:08:53.604Z,10.90
2022-11-30T14:11:33.721Z,10.90
2022-11-30T14:13:35.752Z,10.90
2022-11-30T14:15:42.051Z,10.90
2022-11-30T14:17:44.629Z,10.90
2022-11-30T14:19:50.791Z,10.90
2022-11-30T14:21:52.588Z,10.90
2022-11-30T14:24:26.664Z,10.90
2022-11-30T14:26:44.982Z,10.90
2022-11-30T14:29:07.971Z,10.90
2022-11-30T14:31:16.079Z,10.80
2022-11-30T14:33:24.452Z,10.80
2022-11-30T14:35:30.183Z,10.70
2022-11-30T14:37:44.629Z,10.70
2022-11-30T14:39:50.447Z,10.70
2022-11-30T14:41:52.544Z,10.70
2022-11-30T14:43:59.316Z,10.60
2022-11-30T14:46:08.185Z,10.60
2022-11-30T14:48:15.564Z,10.60
2022-11-30T14:50:26.430Z,10.60
2022-11-30T14:52:46.461Z,10.60
2022-11-30T14:55:30.919Z,10.60
2022-11-30T14:57:43.452Z,10.50
2022-11-30T14:59:51.888Z,10.50
2022-11-30T15:02:09.988Z,10.50
2022-11-30T15:04:16.007Z,10.50
2022-11-30T15:06:19.969Z,10.40
2022-11-30T15:08:23.178Z,10.40
2022-11-30T15:10:34.228Z,10.30
2022-11-30T15:12:39.092Z,10.30
2022-11-30T15:15:01.789Z,10.30
2022-11-30T15:17:15.504Z,10.30
2022-11-30T15:19:32.262Z,10.20
2022-11-30T15:21:34.038Z,10.20
2022-11-30T15:23:35.878Z,10.20
2022-11-30T15:26:02.605Z,10.10
2022-11-30T15:28:06.221Z,10.10
2022-11-30T15:30:14.251Z,10.10
2022-11-30T15:32:19.410Z,10.10
2022-11-30T15:34:33.055Z,10.10
2022-11-30T15:36:38.093Z,10.00
2022-11-30T15:38:40.720Z,10.00
2022-11-30T15:40:42.591Z,10.00
2022-11-30T15:42:48.988Z,10.00
2022-11-30T15:44:50.784Z,10.00
2022-11-30T15:47:02.384Z,9.90
2022-11-30T15:49:30.472Z,9.90
2022-11-30T15:51:41.677Z,9.90
2022-11-30T15:53:51.052Z,9.90
2022-11-30T15:56:23.315Z,9.80
2022-11-30T15:58:30.745Z,9.80
2022-11-30T16:00:34.869Z,9.80
2022-11-30T16:02:37.988Z,9.70
2022-11-30T16:04:57.517Z,9.80
2022-11-30T16:06:59.235Z,9.80
2022-11-30T16:09:17.891Z,9.70
2022-11-30T16:11:20.171Z,9.70
2022-11-30T16:13:23.271Z,9.60
2022-11-30T16:15:36.390Z,9.60
2022-11-30T16:17:40.539Z,9.60
2022-11-30T16:19:42.281Z,9.60
2022-11-30T16:21:44.041Z,9.60
2022-11-30T16:23:47.123Z,9.60
2022-11-30T16:25:50.369Z,9.60
2022-11-30T16:27:54.268Z,9.60
2022-11-30T16:29:56.542Z,9.50
2022-11-30T16:32:00.933Z,9.50
2022-11-30T16:34:02.845Z,9.50
2022-11-30T16:36:08.903Z,9.50
2022-11-30T16:38:10.606Z,9.60
2022-11-30T16:40:15.849Z,9.50
2022-11-30T16:42:17.498Z,9.60
2022-11-30T16:44:19.949Z,9.50
2022-11-30T16:46:26.916Z,9.60
2022-11-30T16:48:30.743Z,9.60
2022-11-30T16:50:34.557Z,9.50
2022-11-30T16:52:36.280Z,9.50
2022-11-30T16:54:38.005Z,9.50
2022-11-30T16:56:40.855Z,9.60
2022-11-30T16:58:44.151Z,9.50
2022-11-30T17:00:48.616Z,9.60
2022-11-30T17:03:04.536Z,9.50
2022-11-30T17:05:06.906Z,9.60
2022-11-30T17:07:11.739Z,9.50
2022-11-30T17:09:14.864Z,9.50
2022-11-30T17:11:37.180Z,9.50
2022-11-30T17:13:43.276Z,9.60
2022-11-30T17:15:44.987Z,9.60
2022-11-30T17:17:46.718Z,9.50
2022-11-30T17:19:48.409Z,9.50
2022-11-30T17:21:50.818Z,9.50
2022-11-30T17:23:52.607Z,9.50
2022-11-30T17:25:56.821Z,9.50
2022-11-30T17:27:58.780Z,9.50
2022-11-30T17:30:00.563Z,9.50
2022-11-30T17:32:02.286Z,9.50
2022-11-30T17:34:08.492Z,9.50
2022-11-30T17:36:14.916Z,9.50
2022-11-30T17:38:16.567Z,9.50
2022-11-30T17:40:18.280Z,9.50
2022-11-30T17:42:20.092Z,9.50
2022-11-30T17:44:21.977Z,9.50
2022-11-30T17:46:26.248Z,9.50
2022-11-30T17:48:30.900Z,9.50
2022-11-30T17:50:37.489Z,9.50
2022-11-30T17:52:39.426Z,9.50
2022-11-30T17:54:41.136Z,9.50
2022-11-30T17:56:46.032Z,9.50
2022-11-30T17:58:49.288Z,9.50
2022-11-30T18:00:51.103Z,9.50
2022-11-30T18:02:56.309Z,9.50
2022-11-30T18:04:58.544Z,9.50
2022-11-30T18:07:00.318Z,9.50
2022-11-30T18:09:02.219Z,9.50
2022-11-30T18:11:24.412Z,9.50
2022-11-30T18:13:28.583Z,9.50
2022-11-30T18:15:30.275Z,9.50
2022-11-30T18:17:32.362Z,9.50
2022-11-30T18:19:34.071Z,9.50
2022-11-30T18:21:35.756Z,9.50
2022-11-30T18:23:38.082Z,9.50
2022-11-30T18:25:42.313Z,9.50
2022-11-30T18:27:44.344Z,9.50
2022-11-30T18:29:46.144Z,9.50
2022-11-30T18:31:51.240Z,9.50
2022-11-30T18:34:04.305Z,9.50
2022-11-30T18:36:07.597Z,9.50
2022-11-30T18:38:09.646Z,9.50
2022-11-30T18:40:13.905Z,9.50
2022-11-30T18:42:16.245Z,9.60
2022-11-30T18:44:19.145Z,9.50
2022-11-30T18:46:21.295Z,9.50
2022-11-30T18:48:23.039Z,9.50
2022-11-30T18:50:24.810Z,9.50
2022-11-30T18:52:27.287Z,9.50
2022-11-30T18:54:30.750Z,9.50
2022-11-30T18:56:35.736Z,9.50
2022-11-30T18:58:38.729Z,9.50
2022-11-30T19:00:40.423Z,9.60
2022-11-30T19:02:42.221Z,9.60
2022-11-30T19:04:43.933Z,9.50
2022-11-30T19:06:45.601Z,9.50
2022-11-30T19:08:48.190Z,9.50
2022-11-30T19:10:49.844Z,9.50
2022-11-30T19:12:51.624Z,9.50
2022-11-30T19:14:54.105Z,9.50
2022-11-30T19:17:00.903Z,9.50
2022-11-30T19:19:05.936Z,9.50
2022-11-30T19:21:09.416Z,9.50
2022-11-30T19:23:11.117Z,9.50
2022-11-30T19:25:16.489Z,9.50
2022-11-30T19:27:20.552Z,9.50
2022-11-30T19:29:22.179Z,9.50
2022-11-30T19:31:24.859Z,9.50
2022-11-30T19:33:27.680Z,9.50
2022-11-30T19:35:31.979Z,9.50
2022-11-30T19:37:34.957Z,9.50
2022-11-30T19:39:36.755Z,9.50
2022-11-30T19:41:38.710Z,9.50
2022-11-30T19:43:40.772Z,9.40
2022-11-30T19:45:45.057Z,9.40
2022-11-30T19:47:46.806Z,9.40
2022-11-30T19:49:51.370Z,9.40
2022-11-30T19:51:56.035Z,9.40
2022-11-30T19:53:59.234Z,9.40
2022-11-30T19:56:10.041Z,9.40
2022-11-30T19:58:11.713Z,9.40
2022-11-30T20:00:13.832Z,9.40
2022-11-30T20:02:15.641Z,9.40
2022-11-30T20:04:19.631Z,9.40
2022-11-30T20:06:25.079Z,9.40
2022-11-30T20:08:28.333Z,9.40
2022-11-30T20:10:32.145Z,9.40
2022-11-30T20:12:35.218Z,9.40
2022-11-30T20:14:37.381Z,9.40
2022-11-30T20:16:39.132Z,9.40
2022-11-30T20:18:46.072Z,9.40
2022-11-30T20:20:50.369Z,9.40
2022-11-30T20:22:52.319Z,9.40
2022-11-30T20:24:54.083Z,9.40
2022-11-30T20:26:55.817Z,9.40
2022-11-30T20:28:59.404Z,9.40
2022-11-30T20:31:02.423Z,9.40
2022-11-30T20:33:04.588Z,9.40
2022-11-30T20:35:09.885Z,9.40
2022-11-30T20:37:14.086Z,9.40
2022-11-30T20:39:15.923Z,9.40
2022-11-30T20:41:20.538Z,9.40
2022-11-30T20:43:22.355Z,9.40
2022-11-30T20:45:23.980Z,9.40
2022-11-30T20:47:25.724Z,9.30
2022-11-30T20:49:27.684Z,9.30
2022-11-30T20:51:36.541Z,9.30
2022-11-30T20:53:42.841Z,9.40
2022-11-30T20:55:44.597Z,9.30
2022-11-30T20:57:48.636Z,9.30
2022-11-30T20:59:50.582Z,9.30
2022-11-30T21:01:54.130Z,9.30
2022-11-30T21:03:57.226Z,9.30
2022-11-30T21:05:59.382Z,9.30
2022-11-30T21:08:01.188Z,9.30
2022-11-30T21:10:03.910Z,9.30
2022-11-30T21:12:05.911Z,9.20
2022-11-30T21:14:07.767Z,9.30
2022-11-30T21:16:09.780Z,9.30
2022-11-30T21:18:11.790Z,9.20
2022-11-30T21:20:16.347Z,9.30
2022-11-30T21:22:18.014Z,9.20
2022-11-30T21:24:19.715Z,9.20
2022-11-30T21:26:32.735Z,9.20
2022-11-30T21:28:38.192Z,9.20
2022-11-30T21:30:40.553Z,9.20
2022-11-30T21:32:44.554Z,9.20
2022-11-30T21:34:46.532Z,9.20
2022-11-30T21:36:48.879Z,9.20
2022-11-30T21:39:05.043Z,9.20
2022-11-30T21:41:10.537Z,9.20
2022-11-30T21:43:12.309Z,9.20
2022-11-30T21:45:18.960Z,9.20
2022-11-30T21:47:20.765Z,9.20
2022-11-30T21:49:25.511Z,9.20
2022-11-30T21:51:28.619Z,9.20
2022-11-30T21:53:37.203Z,9.20
2022-11-30T21:55:39.159Z,9.20
2022-11-30T21:57:40.894Z,9.20
2022-11-30T21:59:42.607Z,9.20
2022-11-30T22:01:45.359Z,9.10
2022-11-30T22:03:48.261Z,9.20
2022-11-30T22:06:03.476Z,9.10
2022-11-30T22:08:05.491Z,9.20
2022-11-30T22:10:08.192Z,9.10
2022-11-30T22:12:12.115Z,9.10
2022-11-30T22:14:16.316Z,9.00
2022-11-30T22:16:18.930Z,9.00
2022-11-30T22:18:20.713Z,9.00
2022-11-30T22:20:24.884Z,9.00
2022-11-30T22:22:34.701Z,9.00
2022-11-30T22:24:38.372Z,9.00
2022-11-30T22:26:45.330Z,9.00
2022-11-30T22:29:12.981Z,9.00
2022-11-30T22:31:17.682Z,9.00
2022-11-30T22:33:23.216Z,9.00
2022-11-30T22:35:25.205Z,8.90
2022-11-30T22:37:27.158Z,8.90
2022-11-30T22:39:31.226Z,9.00
2022-11-30T22:41:33.590Z,9.00
2022-11-30T22:43:36.246Z,9.00
2022-11-30T22:45:38.594Z,8.90
2022-11-30T22:47:41.834Z,9.00
2022-11-30T22:49:43.774Z,9.00
2022-11-30T22:51:45.635Z,9.00
2022-11-30T22:53:48.864Z,9.00
2022-11-30T22:55:50.663Z,9.00
2022-11-30T22:57:54.826Z,9.00
2022-11-30T22:59:56.511Z,9.00
2022-11-30T23:01:59.189Z,9.00
2022-11-30T23:04:16.256Z,9.00
2022-11-30T23:06:24.975Z,9.00
2022-11-30T23:08:27.978Z,9.00
2022-11-30T23:10:29.730Z,9.00
2022-11-30T23:12:58.080Z,9.00
2022-11-30T23:14:57.484Z,9.00
2022-11-30T23:16:59.180Z,9.00
2022-11-30T23:19:01.141Z,9.00
2022-11-30T23:21:11.253Z,9.00
2022-11-30T23:23:13.150Z,9.10
2022-11-30T23:25:15.098Z,9.00
2022-11-30T23:27:16.767Z,9.10
2022-11-30T23:29:18.993Z,9.00
2022-11-30T23:31:32.913Z,9.10
2022-11-30T23:33:38.079Z,9.10
2022-11-30T23:35:43.840Z,9.10
2022-11-30T23:37:45.552Z,9.10
2022-11-30T23:39:47.634Z,9.10
2022-11-30T23:41:53.298Z,9.10
2022-11-30T23:43:57.442Z,9.10
2022-11-30T23:45:59.249Z,9.10
2022-11-30T23:48:00.993Z,9.10
2022-11-30T23:50:03.542Z,9.20
2022-11-30T23:52:05.296Z,9.10
2022-11-30T23:54:06.980Z,9.20
2022-11-30T23:56:13.419Z,9.20
2022-11-30T23:58:15.324Z,9.20
